SVMISVBC

Guest
Details From SVMI - Caracas Simon Bolivar Intl
To SVBC - General Jose Antonio Anzoategui Intl
Flight Number -
Tags Generated
Created
Modified
Stats Distance 140 nm / 258 km
Max Altitude 0 ft / 0 m
Waypoints 2
Social Downloads 2
Likes 0
Share VATSIM

Download

Looking for another format? Having issues loading an existing format? Contact us
Advertisement - Login to hide

Notes

Generated

Route

SVMI SVBC

ID Type Via Altitude Latitude Longitude Leg Dist Tot Dist Heading (true) Name
O SVMI APT - 0 ft / 0 m 10.59869˚ -66.99768˚ - 0 nm - -
O SVBC APT - 0 ft / 0 m 10.09741˚ -64.69135˚ 139 nm 139 nm 102° / 103° -

Altitude Profile

Advertisement - Login to hide

SVMI

Details ICAO SVMI (CCS)
Name Caracas Simon Bolivar Intl
Region Venezuela
Timezone America/Caracas (UTC-4.0)
Stats Elevation 235 ft / 72 m (AMSL)
Location 10.603119° -66.990585°
Runways 2
Magnetic Variation 12.288° W

METAR

SVMI 131500Z 36006KT 9999 FEW016 28/22 Q1014

Decode

TAF

TAF SVMI 131000Z 1312/1412 00000KT 9999 FEW016 TX30/19Z TN21/09Z BECMG 1314/1318 05008KT 9999 SCT016

Decode

Departure Runways

ID Width Length Bearing (true) Bearing (mag) Surface Threshold Offset Overrun Length
09 145 ft / 44 m 9,825 ft / 2,995 m 75.92° 88.21° Asphalt 0 ft / 0 m 0 ft / 0 m
10 148 ft / 45 m 11,472 ft / 3,497 m 88.14° 100.43° Asphalt 0 ft / 0 m 200 ft / 61 m
27 145 ft / 44 m 9,825 ft / 2,995 m 255.92° 268.21° Asphalt 0 ft / 0 m 0 ft / 0 m
28 148 ft / 45 m 11,472 ft / 3,497 m 268.15° 280.44° Asphalt 0 ft / 0 m 200 ft / 61 m

SVBC

Details ICAO SVBC (BLA)
Name GENERAL JOSE ANTONIO ANZOATEGUI INTL
Region Venezuela
Timezone America/Caracas (UTC-4.0)
Stats Elevation 26 ft / 8 m (AMSL)
Location 10.109760° -64.690545°
Runways 2
Magnetic Variation 13.460° W

METAR

Not found

TAF

TAF SVBC 131000Z 1312/1412 00000KT 9999 FEW010 TX35/18Z TN24/08Z BECMG 1314/1318 05010KT 9999 SCT016

Decode

Destination Runways

ID Width Length Bearing (true) Bearing (mag) Surface Threshold Offset Overrun Length
02 130 ft / 40 m 8,253 ft / 2,516 m 12.50° 25.96° Asphalt 0 ft / 0 m 0 ft / 0 m
15 130 ft / 40 m 9,853 ft / 3,003 m 142.74° 156.20° Asphalt 0 ft / 0 m 500 ft / 152 m
20 130 ft / 40 m 8,253 ft / 2,516 m 192.50° 205.96° Asphalt 980 ft / 299 m 0 ft / 0 m
33 130 ft / 40 m 9,853 ft / 3,003 m 322.74° 336.20° Asphalt 0 ft / 0 m 0 ft / 0 m

Approach Navaids

Runway Type Ident Frequency Range Bearing (true) Bearing (mag) Slope Elevation
15 Localiser IBNA 110.90 MHz 18 nm / 33 km 142.72° 156.18° - 26 ft / 8 m (AMSL)
15 Glidescope IBNA 110.90 MHz 10 nm / 19 km 142.74° 156.20° 3.00° 26 ft / 8 m (AMSL)

Popular Alternatives